sensor_id;sensor_type;location;lat;lon;timestamp;P1;durP1;ratioP1;P2;durP2;ratioP2
55216;SDS011;41086;46.736;15.666;2023-01-04T00:02:23;32.08;;;18.88;;
55216;SDS011;41086;46.736;15.666;2023-01-04T00:04:50;28.15;;;19.08;;
55216;SDS011;41086;46.736;15.666;2023-01-04T00:07:17;36.05;;;20.50;;
55216;SDS011;41086;46.736;15.666;2023-01-04T00:09:44;28.85;;;20.02;;
55216;SDS011;41086;46.736;15.666;2023-01-04T00:12:11;33.63;;;19.90;;
55216;SDS011;41086;46.736;15.666;2023-01-04T00:14:38;34.05;;;23.00;;
55216;SDS011;41086;46.736;15.666;2023-01-04T00:17:04;38.63;;;24.20;;
55216;SDS011;41086;46.736;15.666;2023-01-04T00:19:31;42.40;;;23.02;;
55216;SDS011;41086;46.736;15.666;2023-01-04T00:21:58;40.17;;;25.33;;
55216;SDS011;41086;46.736;15.666;2023-01-04T00:24:25;38.78;;;25.05;;
55216;SDS011;41086;46.736;15.666;2023-01-04T00:26:51;48.35;;;27.75;;
55216;SDS011;41086;46.736;15.666;2023-01-04T00:29:18;43.78;;;26.73;;
55216;SDS011;41086;46.736;15.666;2023-01-04T00:31:45;40.63;;;26.65;;
55216;SDS011;41086;46.736;15.666;2023-01-04T00:34:13;47.33;;;29.08;;
55216;SDS011;41086;46.736;15.666;2023-01-04T00:36:41;45.03;;;29.88;;
55216;SDS011;41086;46.736;15.666;2023-01-04T00:41:47;38.80;;;25.67;;
55216;SDS011;41086;46.736;15.666;2023-01-04T00:44:25;43.92;;;25.17;;
55216;SDS011;41086;46.736;15.666;2023-01-04T00:46:52;58.80;;;30.52;;
55216;SDS011;41086;46.736;15.666;2023-01-04T00:49:19;38.83;;;25.80;;
55216;SDS011;41086;46.736;15.666;2023-01-04T00:51:46;43.00;;;27.63;;
55216;SDS011;41086;46.736;15.666;2023-01-04T00:54:13;35.00;;;25.05;;
55216;SDS011;41086;46.736;15.666;2023-01-04T00:56:41;47.50;;;29.35;;
55216;SDS011;41086;46.736;15.666;2023-01-04T00:59:09;46.42;;;29.23;;
55216;SDS011;41086;46.736;15.666;2023-01-04T01:01:38;50.83;;;31.92;;
55216;SDS011;41086;46.736;15.666;2023-01-04T01:04:06;58.30;;;31.65;;
55216;SDS011;41086;46.736;15.666;2023-01-04T01:06:35;55.83;;;32.10;;
55216;SDS011;41086;46.736;15.666;2023-01-04T01:09:02;69.30;;;38.08;;
55216;SDS011;41086;46.736;15.666;2023-01-04T01:13:56;72.65;;;36.63;;
55216;SDS011;41086;46.736;15.666;2023-01-04T01:16:24;73.35;;;39.40;;
55216;SDS011;41086;46.736;15.666;2023-01-04T01:21:39;60.03;;;35.10;;
55216;SDS011;41086;46.736;15.666;2023-01-04T01:26:33;62.08;;;36.78;;
55216;SDS011;41086;46.736;15.666;2023-01-04T01:29:00;58.30;;;38.08;;
55216;SDS011;41086;46.736;15.666;2023-01-04T01:31:27;56.38;;;37.88;;
55216;SDS011;41086;46.736;15.666;2023-01-04T01:33:55;69.50;;;37.10;;
55216;SDS011;41086;46.736;15.666;2023-01-04T01:36:23;67.60;;;37.97;;
55216;SDS011;41086;46.736;15.666;2023-01-04T01:38:52;62.67;;;38.22;;
55216;SDS011;41086;46.736;15.666;2023-01-04T01:41:23;57.42;;;34.88;;
55216;SDS011;41086;46.736;15.666;2023-01-04T01:48:52;45.90;;;27.38;;
55216;SDS011;41086;46.736;15.666;2023-01-04T01:51:24;38.90;;;23.35;;
55216;SDS011;41086;46.736;15.666;2023-01-04T01:53:54;37.88;;;21.88;;
55216;SDS011;41086;46.736;15.666;2023-01-04T01:56:26;30.58;;;17.83;;
55216;SDS011;41086;46.736;15.666;2023-01-04T01:58:55;40.85;;;22.15;;
55216;SDS011;41086;46.736;15.666;2023-01-04T02:01:25;27.88;;;17.00;;
55216;SDS011;41086;46.736;15.666;2023-01-04T02:03:53;40.55;;;22.75;;
55216;SDS011;41086;46.736;15.666;2023-01-04T02:06:31;35.55;;;23.55;;
55216;SDS011;41086;46.736;15.666;2023-01-04T02:09:02;43.33;;;20.75;;
55216;SDS011;41086;46.736;15.666;2023-01-04T02:11:29;30.58;;;20.38;;
55216;SDS011;41086;46.736;15.666;2023-01-04T02:19:41;44.30;;;25.67;;
55216;SDS011;41086;46.736;15.666;2023-01-04T02:33:45;43.60;;;29.50;;
55216;SDS011;41086;46.736;15.666;2023-01-04T02:39:04;46.75;;;30.30;;
55216;SDS011;41086;46.736;15.666;2023-01-04T02:41:47;50.60;;;30.40;;
55216;SDS011;41086;46.736;15.666;2023-01-04T02:47:34;44.53;;;28.77;;
55216;SDS011;41086;46.736;15.666;2023-01-04T02:53:00;41.80;;;28.42;;
55216;SDS011;41086;46.736;15.666;2023-01-04T02:55:40;45.20;;;28.90;;
55216;SDS011;41086;46.736;15.666;2023-01-04T02:58:22;50.65;;;30.55;;
55216;SDS011;41086;46.736;15.666;2023-01-04T03:10:28;45.05;;;29.40;;
55216;SDS011;41086;46.736;15.666;2023-01-04T03:13:06;52.47;;;32.78;;
55216;SDS011;41086;46.736;15.666;2023-01-04T03:15:39;48.88;;;29.73;;
55216;SDS011;41086;46.736;15.666;2023-01-04T03:18:21;42.38;;;28.70;;
55216;SDS011;41086;46.736;15.666;2023-01-04T03:20:52;54.03;;;31.63;;
55216;SDS011;41086;46.736;15.666;2023-01-04T03:23:24;46.08;;;30.63;;
55216;SDS011;41086;46.736;15.666;2023-01-04T03:26:14;44.63;;;28.05;;
55216;SDS011;41086;46.736;15.666;2023-01-04T03:29:06;47.80;;;28.20;;
55216;SDS011;41086;46.736;15.666;2023-01-04T03:32:12;48.47;;;30.02;;
55216;SDS011;41086;46.736;15.666;2023-01-04T03:35:02;47.55;;;29.35;;
55216;SDS011;41086;46.736;15.666;2023-01-04T03:41:53;47.60;;;27.83;;
55216;SDS011;41086;46.736;15.666;2023-01-04T03:44:23;45.72;;;30.33;;
55216;SDS011;41086;46.736;15.666;2023-01-04T03:47:21;48.67;;;30.10;;
55216;SDS011;41086;46.736;15.666;2023-01-04T03:50:27;65.93;;;32.58;;
55216;SDS011;41086;46.736;15.666;2023-01-04T03:52:57;56.78;;;32.30;;
55216;SDS011;41086;46.736;15.666;2023-01-04T03:55:25;52.53;;;32.55;;
55216;SDS011;41086;46.736;15.666;2023-01-04T03:57:55;62.67;;;35.65;;
55216;SDS011;41086;46.736;15.666;2023-01-04T04:00:24;83.03;;;43.13;;
55216;SDS011;41086;46.736;15.666;2023-01-04T04:02:51;68.20;;;38.50;;
55216;SDS011;41086;46.736;15.666;2023-01-04T04:05:19;61.53;;;37.55;;
55216;SDS011;41086;46.736;15.666;2023-01-04T04:08:07;62.75;;;36.70;;
55216;SDS011;41086;46.736;15.666;2023-01-04T04:10:53;55.47;;;35.75;;
55216;SDS011;41086;46.736;15.666;2023-01-04T04:13:48;73.95;;;41.83;;
55216;SDS011;41086;46.736;15.666;2023-01-04T04:16:15;71.82;;;41.88;;
55216;SDS011;41086;46.736;15.666;2023-01-04T04:21:09;61.45;;;35.95;;
55216;SDS011;41086;46.736;15.666;2023-01-04T04:23:36;72.38;;;40.20;;
55216;SDS011;41086;46.736;15.666;2023-01-04T04:26:03;73.82;;;42.95;;
55216;SDS011;41086;46.736;15.666;2023-01-04T04:28:30;79.60;;;43.20;;
55216;SDS011;41086;46.736;15.666;2023-01-04T04:30:56;69.13;;;39.97;;
55216;SDS011;41086;46.736;15.666;2023-01-04T04:33:23;80.60;;;48.92;;
55216;SDS011;41086;46.736;15.666;2023-01-04T04:35:53;93.25;;;58.03;;
55216;SDS011;41086;46.736;15.666;2023-01-04T04:38:20;70.45;;;45.15;;
55216;SDS011;41086;46.736;15.666;2023-01-04T04:40:48;64.93;;;42.75;;
55216;SDS011;41086;46.736;15.666;2023-01-04T04:43:33;69.22;;;41.95;;
55216;SDS011;41086;46.736;15.666;2023-01-04T04:46:01;62.53;;;38.38;;
55216;SDS011;41086;46.736;15.666;2023-01-04T04:48:28;58.20;;;36.35;;
55216;SDS011;41086;46.736;15.666;2023-01-04T04:50:55;76.80;;;42.97;;
55216;SDS011;41086;46.736;15.666;2023-01-04T04:53:22;62.33;;;36.92;;
55216;SDS011;41086;46.736;15.666;2023-01-04T04:55:52;76.30;;;40.80;;
55216;SDS011;41086;46.736;15.666;2023-01-04T04:58:19;61.78;;;37.50;;
55216;SDS011;41086;46.736;15.666;2023-01-04T05:00:47;55.88;;;35.55;;
55216;SDS011;41086;46.736;15.666;2023-01-04T05:03:13;54.33;;;34.83;;
55216;SDS011;41086;46.736;15.666;2023-01-04T05:05:40;62.08;;;39.70;;
55216;SDS011;41086;46.736;15.666;2023-01-04T05:08:07;66.65;;;38.55;;
55216;SDS011;41086;46.736;15.666;2023-01-04T05:10:35;62.67;;;39.50;;
55216;SDS011;41086;46.736;15.666;2023-01-04T05:13:03;64.20;;;38.15;;
55216;SDS011;41086;46.736;15.666;2023-01-04T05:15:33;62.90;;;37.13;;
55216;SDS011;41086;46.736;15.666;2023-01-04T05:18:02;56.47;;;35.85;;
55216;SDS011;41086;46.736;15.666;2023-01-04T05:20:30;62.30;;;35.97;;
55216;SDS011;41086;46.736;15.666;2023-01-04T05:22:57;57.80;;;36.50;;
55216;SDS011;41086;46.736;15.666;2023-01-04T05:25:24;67.18;;;37.70;;
55216;SDS011;41086;46.736;15.666;2023-01-04T05:27:51;58.33;;;35.75;;
55216;SDS011;41086;46.736;15.666;2023-01-04T05:30:18;67.90;;;38.45;;
55216;SDS011;41086;46.736;15.666;2023-01-04T05:33:03;51.45;;;33.13;;
55216;SDS011;41086;46.736;15.666;2023-01-04T05:35:31;56.53;;;35.47;;
55216;SDS011;41086;46.736;15.666;2023-01-04T05:40:25;54.70;;;29.15;;
55216;SDS011;41086;46.736;15.666;2023-01-04T05:42:52;51.38;;;30.77;;
55216;SDS011;41086;46.736;15.666;2023-01-04T05:45:19;46.15;;;27.85;;
55216;SDS011;41086;46.736;15.666;2023-01-04T05:47:52;51.65;;;27.90;;
55216;SDS011;41086;46.736;15.666;2023-01-04T05:50:20;50.17;;;27.02;;
55216;SDS011;41086;46.736;15.666;2023-01-04T05:52:48;49.08;;;29.65;;
55216;SDS011;41086;46.736;15.666;2023-01-04T05:55:16;54.67;;;29.98;;
55216;SDS011;41086;46.736;15.666;2023-01-04T06:00:10;41.88;;;26.75;;
55216;SDS011;41086;46.736;15.666;2023-01-04T06:02:39;43.60;;;26.92;;
55216;SDS011;41086;46.736;15.666;2023-01-04T06:05:07;45.97;;;29.35;;
55216;SDS011;41086;46.736;15.666;2023-01-04T06:07:35;44.92;;;29.60;;
55216;SDS011;41086;46.736;15.666;2023-01-04T06:10:02;50.45;;;30.33;;
55216;SDS011;41086;46.736;15.666;2023-01-04T06:12:30;46.75;;;30.08;;
55216;SDS011;41086;46.736;15.666;2023-01-04T06:14:57;45.28;;;29.98;;
55216;SDS011;41086;46.736;15.666;2023-01-04T06:17:25;46.80;;;28.15;;
55216;SDS011;41086;46.736;15.666;2023-01-04T06:19:52;48.92;;;29.00;;
55216;SDS011;41086;46.736;15.666;2023-01-04T06:22:18;48.83;;;28.23;;
55216;SDS011;41086;46.736;15.666;2023-01-04T06:24:46;52.33;;;28.27;;
55216;SDS011;41086;46.736;15.666;2023-01-04T06:27:13;39.08;;;26.98;;
55216;SDS011;41086;46.736;15.666;2023-01-04T06:29:40;52.55;;;30.92;;
55216;SDS011;41086;46.736;15.666;2023-01-04T06:32:06;49.35;;;28.65;;
55216;SDS011;41086;46.736;15.666;2023-01-04T06:34:33;48.95;;;29.83;;
55216;SDS011;41086;46.736;15.666;2023-01-04T06:37:00;54.63;;;31.77;;
55216;SDS011;41086;46.736;15.666;2023-01-04T06:39:27;48.20;;;28.08;;
55216;SDS011;41086;46.736;15.666;2023-01-04T06:41:54;50.88;;;29.67;;
55216;SDS011;41086;46.736;15.666;2023-01-04T06:44:30;48.58;;;30.55;;
55216;SDS011;41086;46.736;15.666;2023-01-04T06:46:57;54.97;;;32.30;;
55216;SDS011;41086;46.736;15.666;2023-01-04T06:49:26;49.30;;;31.20;;
55216;SDS011;41086;46.736;15.666;2023-01-04T06:51:53;69.22;;;37.97;;
55216;SDS011;41086;46.736;15.666;2023-01-04T06:54:19;49.33;;;29.83;;
55216;SDS011;41086;46.736;15.666;2023-01-04T06:56:46;47.00;;;28.48;;
55216;SDS011;41086;46.736;15.666;2023-01-04T06:59:13;53.92;;;34.22;;
55216;SDS011;41086;46.736;15.666;2023-01-04T07:01:40;47.15;;;30.63;;
55216;SDS011;41086;46.736;15.666;2023-01-04T07:04:07;50.15;;;30.15;;
55216;SDS011;41086;46.736;15.666;2023-01-04T07:06:34;49.10;;;31.25;;
55216;SDS011;41086;46.736;15.666;2023-01-04T07:09:02;48.67;;;29.75;;
55216;SDS011;41086;46.736;15.666;2023-01-04T07:11:28;49.45;;;29.08;;
55216;SDS011;41086;46.736;15.666;2023-01-04T07:13:56;44.03;;;28.20;;
55216;SDS011;41086;46.736;15.666;2023-01-04T07:16:23;42.58;;;27.67;;
55216;SDS011;41086;46.736;15.666;2023-01-04T07:18:50;46.45;;;30.08;;
55216;SDS011;41086;46.736;15.666;2023-01-04T07:21:17;52.40;;;30.77;;
55216;SDS011;41086;46.736;15.666;2023-01-04T07:23:44;46.05;;;28.40;;
55216;SDS011;41086;46.736;15.666;2023-01-04T07:26:11;43.67;;;26.27;;
55216;SDS011;41086;46.736;15.666;2023-01-04T07:28:37;36.10;;;25.08;;
55216;SDS011;41086;46.736;15.666;2023-01-04T07:31:23;38.38;;;23.67;;
55216;SDS011;41086;46.736;15.666;2023-01-04T07:33:49;44.35;;;27.30;;
55216;SDS011;41086;46.736;15.666;2023-01-04T07:36:16;45.83;;;27.40;;
55216;SDS011;41086;46.736;15.666;2023-01-04T07:38:43;38.33;;;25.55;;
55216;SDS011;41086;46.736;15.666;2023-01-04T07:41:10;61.92;;;36.88;;
55216;SDS011;41086;46.736;15.666;2023-01-04T07:43:37;42.03;;;27.70;;
55216;SDS011;41086;46.736;15.666;2023-01-04T07:46:04;45.17;;;26.05;;
55216;SDS011;41086;46.736;15.666;2023-01-04T07:48:31;42.05;;;25.80;;
55216;SDS011;41086;46.736;15.666;2023-01-04T07:50:57;42.05;;;25.35;;
55216;SDS011;41086;46.736;15.666;2023-01-04T07:53:24;43.83;;;26.05;;
55216;SDS011;41086;46.736;15.666;2023-01-04T07:55:55;40.80;;;24.98;;
55216;SDS011;41086;46.736;15.666;2023-01-04T07:58:24;41.28;;;26.73;;
55216;SDS011;41086;46.736;15.666;2023-01-04T08:00:51;45.78;;;26.00;;
55216;SDS011;41086;46.736;15.666;2023-01-04T08:03:18;38.75;;;24.50;;
55216;SDS011;41086;46.736;15.666;2023-01-04T08:05:44;41.10;;;24.15;;
55216;SDS011;41086;46.736;15.666;2023-01-04T08:08:12;34.22;;;22.85;;
55216;SDS011;41086;46.736;15.666;2023-01-04T08:10:39;34.45;;;19.70;;
55216;SDS011;41086;46.736;15.666;2023-01-04T08:13:06;32.22;;;20.33;;
55216;SDS011;41086;46.736;15.666;2023-01-04T08:15:32;36.35;;;19.92;;
55216;SDS011;41086;46.736;15.666;2023-01-04T08:18:00;32.30;;;20.52;;
55216;SDS011;41086;46.736;15.666;2023-01-04T08:20:27;40.20;;;23.17;;
55216;SDS011;41086;46.736;15.666;2023-01-04T08:22:54;32.30;;;21.48;;
55216;SDS011;41086;46.736;15.666;2023-01-04T08:25:20;37.28;;;25.40;;
55216;SDS011;41086;46.736;15.666;2023-01-04T08:27:47;35.20;;;24.52;;
55216;SDS011;41086;46.736;15.666;2023-01-04T08:30:15;38.88;;;24.98;;
55216;SDS011;41086;46.736;15.666;2023-01-04T08:32:41;38.33;;;24.98;;
55216;SDS011;41086;46.736;15.666;2023-01-04T08:35:08;179.32;;;110.00;;
55216;SDS011;41086;46.736;15.666;2023-01-04T08:37:35;39.28;;;25.70;;
55216;SDS011;41086;46.736;15.666;2023-01-04T08:40:02;42.70;;;30.38;;
55216;SDS011;41086;46.736;15.666;2023-01-04T08:42:29;41.75;;;25.52;;
55216;SDS011;41086;46.736;15.666;2023-01-04T08:44:57;62.35;;;40.42;;
55216;SDS011;41086;46.736;15.666;2023-01-04T08:47:27;46.10;;;26.83;;
55216;SDS011;41086;46.736;15.666;2023-01-04T08:49:55;37.05;;;25.85;;
55216;SDS011;41086;46.736;15.666;2023-01-04T08:52:22;33.92;;;23.98;;
55216;SDS011;41086;46.736;15.666;2023-01-04T08:54:49;37.80;;;25.63;;
55216;SDS011;41086;46.736;15.666;2023-01-04T08:57:16;33.53;;;23.73;;
55216;SDS011;41086;46.736;15.666;2023-01-04T08:59:44;35.40;;;23.92;;
55216;SDS011;41086;46.736;15.666;2023-01-04T09:02:21;34.95;;;23.13;;
55216;SDS011;41086;46.736;15.666;2023-01-04T09:04:50;30.45;;;20.88;;
55216;SDS011;41086;46.736;15.666;2023-01-04T09:09:44;38.83;;;21.65;;
55216;SDS011;41086;46.736;15.666;2023-01-04T09:12:11;33.00;;;22.73;;
55216;SDS011;41086;46.736;15.666;2023-01-04T09:14:37;36.42;;;20.30;;
55216;SDS011;41086;46.736;15.666;2023-01-04T09:17:05;24.55;;;17.73;;
55216;SDS011;41086;46.736;15.666;2023-01-04T09:19:31;28.13;;;17.63;;
55216;SDS011;41086;46.736;15.666;2023-01-04T09:21:58;20.92;;;15.57;;
55216;SDS011;41086;46.736;15.666;2023-01-04T09:24:25;23.15;;;15.95;;
55216;SDS011;41086;46.736;15.666;2023-01-04T09:26:53;24.58;;;16.00;;
55216;SDS011;41086;46.736;15.666;2023-01-04T09:29:20;21.45;;;15.13;;
55216;SDS011;41086;46.736;15.666;2023-01-04T09:31:47;23.75;;;15.75;;
55216;SDS011;41086;46.736;15.666;2023-01-04T09:34:14;19.50;;;14.63;;
55216;SDS011;41086;46.736;15.666;2023-01-04T09:36:43;29.27;;;18.00;;
55216;SDS011;41086;46.736;15.666;2023-01-04T09:39:12;23.75;;;16.20;;
55216;SDS011;41086;46.736;15.666;2023-01-04T09:44:38;20.15;;;14.50;;
55216;SDS011;41086;46.736;15.666;2023-01-04T09:47:40;18.25;;;13.23;;
55216;SDS011;41086;46.736;15.666;2023-01-04T09:50:20;20.50;;;14.48;;
55216;SDS011;41086;46.736;15.666;2023-01-04T09:53:03;20.48;;;13.70;;
55216;SDS011;41086;46.736;15.666;2023-01-04T09:55:37;20.02;;;14.48;;
55216;SDS011;41086;46.736;15.666;2023-01-04T10:00:51;18.05;;;12.57;;
55216;SDS011;41086;46.736;15.666;2023-01-04T10:03:31;16.58;;;12.75;;
55216;SDS011;41086;46.736;15.666;2023-01-04T10:06:10;17.33;;;12.82;;
55216;SDS011;41086;46.736;15.666;2023-01-04T10:08:39;17.40;;;12.45;;
55216;SDS011;41086;46.736;15.666;2023-01-04T10:16:38;17.52;;;12.40;;
55216;SDS011;41086;46.736;15.666;2023-01-04T10:22:46;16.13;;;10.45;;
55216;SDS011;41086;46.736;15.666;2023-01-04T10:25:28;14.63;;;10.13;;
55216;SDS011;41086;46.736;15.666;2023-01-04T10:31:13;15.23;;;10.73;;
55216;SDS011;41086;46.736;15.666;2023-01-04T10:34:05;14.68;;;9.18;;
55216;SDS011;41086;46.736;15.666;2023-01-04T10:37:16;11.90;;;8.20;;
55216;SDS011;41086;46.736;15.666;2023-01-04T10:39:52;16.92;;;8.95;;
55216;SDS011;41086;46.736;15.666;2023-01-04T10:47:51;56.80;;;33.90;;
55216;SDS011;41086;46.736;15.666;2023-01-04T10:53:32;12.52;;;7.97;;
55216;SDS011;41086;46.736;15.666;2023-01-04T10:59:06;12.45;;;9.40;;
55216;SDS011;41086;46.736;15.666;2023-01-04T11:13:21;10.07;;;6.15;;
55216;SDS011;41086;46.736;15.666;2023-01-04T11:15:49;7.85;;;4.80;;
55216;SDS011;41086;46.736;15.666;2023-01-04T11:18:18;6.47;;;4.10;;
55216;SDS011;41086;46.736;15.666;2023-01-04T11:20:45;6.15;;;4.00;;
55216;SDS011;41086;46.736;15.666;2023-01-04T11:23:13;8.82;;;4.43;;
55216;SDS011;41086;46.736;15.666;2023-01-04T11:25:48;6.43;;;3.85;;
55216;SDS011;41086;46.736;15.666;2023-01-04T11:31:02;5.32;;;3.40;;
55216;SDS011;41086;46.736;15.666;2023-01-04T11:33:57;6.90;;;3.83;;
55216;SDS011;41086;46.736;15.666;2023-01-04T11:39:22;6.55;;;3.88;;
55216;SDS011;41086;46.736;15.666;2023-01-04T11:41:54;6.18;;;3.55;;
55216;SDS011;41086;46.736;15.666;2023-01-04T11:44:29;5.65;;;3.55;;
55216;SDS011;41086;46.736;15.666;2023-01-04T11:47:10;22.40;;;15.40;;
55216;SDS011;41086;46.736;15.666;2023-01-04T11:49:44;43.80;;;27.70;;
55216;SDS011;41086;46.736;15.666;2023-01-04T11:55:22;56.22;;;31.00;;
55216;SDS011;41086;46.736;15.666;2023-01-04T11:58:06;118.82;;;56.10;;
55216;SDS011;41086;46.736;15.666;2023-01-04T12:00:34;18.58;;;11.75;;
55216;SDS011;41086;46.736;15.666;2023-01-04T12:03:11;10.05;;;6.60;;
55216;SDS011;41086;46.736;15.666;2023-01-04T12:05:39;18.65;;;11.68;;
55216;SDS011;41086;46.736;15.666;2023-01-04T12:10:43;6.32;;;3.75;;
55216;SDS011;41086;46.736;15.666;2023-01-04T12:13:10;49.72;;;28.23;;
55216;SDS011;41086;46.736;15.666;2023-01-04T12:18:29;8.70;;;5.78;;
55216;SDS011;41086;46.736;15.666;2023-01-04T12:21:01;12.57;;;8.77;;
55216;SDS011;41086;46.736;15.666;2023-01-04T12:23:29;5.68;;;4.05;;
55216;SDS011;41086;46.736;15.666;2023-01-04T12:25:56;33.72;;;15.27;;
55216;SDS011;41086;46.736;15.666;2023-01-04T12:30:54;9.65;;;5.25;;
55216;SDS011;41086;46.736;15.666;2023-01-04T12:36:07;11.90;;;6.00;;
55216;SDS011;41086;46.736;15.666;2023-01-04T12:41:18;17.42;;;9.15;;
55216;SDS011;41086;46.736;15.666;2023-01-04T12:43:46;27.38;;;14.00;;
55216;SDS011;41086;46.736;15.666;2023-01-04T12:55:02;7.43;;;4.50;;
55216;SDS011;41086;46.736;15.666;2023-01-04T12:57:49;9.10;;;5.88;;
55216;SDS011;41086;46.736;15.666;2023-01-04T13:00:16;5.30;;;3.28;;
55216;SDS011;41086;46.736;15.666;2023-01-04T13:08:07;5.93;;;3.80;;
55216;SDS011;41086;46.736;15.666;2023-01-04T13:10:38;5.93;;;4.00;;
55216;SDS011;41086;46.736;15.666;2023-01-04T13:15:59;8.43;;;3.40;;
55216;SDS011;41086;46.736;15.666;2023-01-04T13:18:44;6.90;;;4.30;;
55216;SDS011;41086;46.736;15.666;2023-01-04T13:27:07;5.65;;;3.65;;
55216;SDS011;41086;46.736;15.666;2023-01-04T13:29:40;7.05;;;3.28;;
55216;SDS011;41086;46.736;15.666;2023-01-04T13:32:15;4.75;;;2.95;;
55216;SDS011;41086;46.736;15.666;2023-01-04T13:34:54;3.83;;;2.47;;
55216;SDS011;41086;46.736;15.666;2023-01-04T13:37:25;5.10;;;3.15;;
55216;SDS011;41086;46.736;15.666;2023-01-04T13:40:00;6.05;;;3.00;;
55216;SDS011;41086;46.736;15.666;2023-01-04T13:42:38;4.57;;;2.83;;
55216;SDS011;41086;46.736;15.666;2023-01-04T13:48:04;3.70;;;2.60;;
55216;SDS011;41086;46.736;15.666;2023-01-04T13:50:37;4.47;;;1.92;;
55216;SDS011;41086;46.736;15.666;2023-01-04T13:53:20;5.00;;;3.10;;
55216;SDS011;41086;46.736;15.666;2023-01-04T13:55:54;4.68;;;2.25;;
55216;SDS011;41086;46.736;15.666;2023-01-04T13:58:26;5.60;;;2.65;;
55216;SDS011;41086;46.736;15.666;2023-01-04T14:03:40;3.35;;;2.20;;
55216;SDS011;41086;46.736;15.666;2023-01-04T14:08:39;3.47;;;2.30;;
55216;SDS011;41086;46.736;15.666;2023-01-04T14:11:15;4.57;;;2.70;;
55216;SDS011;41086;46.736;15.666;2023-01-04T14:14:17;4.85;;;3.05;;
55216;SDS011;41086;46.736;15.666;2023-01-04T14:19:39;3.92;;;2.75;;
55216;SDS011;41086;46.736;15.666;2023-01-04T14:24:55;4.82;;;2.85;;
55216;SDS011;41086;46.736;15.666;2023-01-04T14:27:36;4.63;;;3.08;;
55216;SDS011;41086;46.736;15.666;2023-01-04T14:32:54;5.70;;;2.90;;
55216;SDS011;41086;46.736;15.666;2023-01-04T14:35:26;4.70;;;2.88;;
55216;SDS011;41086;46.736;15.666;2023-01-04T14:37:54;6.60;;;2.88;;
55216;SDS011;41086;46.736;15.666;2023-01-04T14:40:29;5.10;;;3.05;;
55216;SDS011;41086;46.736;15.666;2023-01-04T14:42:57;4.40;;;2.70;;
55216;SDS011;41086;46.736;15.666;2023-01-04T14:45:24;4.63;;;2.83;;
55216;SDS011;41086;46.736;15.666;2023-01-04T14:47:51;5.10;;;3.00;;
55216;SDS011;41086;46.736;15.666;2023-01-04T14:50:18;4.20;;;3.03;;
55216;SDS011;41086;46.736;15.666;2023-01-04T14:52:49;4.97;;;3.08;;
55216;SDS011;41086;46.736;15.666;2023-01-04T14:55:17;5.68;;;3.65;;
55216;SDS011;41086;46.736;15.666;2023-01-04T14:57:43;6.63;;;4.40;;
55216;SDS011;41086;46.736;15.666;2023-01-04T15:02:44;10.82;;;6.95;;
55216;SDS011;41086;46.736;15.666;2023-01-04T15:05:16;7.93;;;3.40;;
55216;SDS011;41086;46.736;15.666;2023-01-04T15:07:47;5.38;;;3.72;;
55216;SDS011;41086;46.736;15.666;2023-01-04T15:10:24;6.78;;;4.20;;
55216;SDS011;41086;46.736;15.666;2023-01-04T15:12:53;5.15;;;3.40;;
55216;SDS011;41086;46.736;15.666;2023-01-04T15:15:21;4.72;;;3.10;;
55216;SDS011;41086;46.736;15.666;2023-01-04T15:17:48;5.93;;;3.25;;
55216;SDS011;41086;46.736;15.666;2023-01-04T15:20:15;4.80;;;3.17;;
55216;SDS011;41086;46.736;15.666;2023-01-04T15:22:42;5.07;;;3.55;;
55216;SDS011;41086;46.736;15.666;2023-01-04T15:25:09;6.55;;;3.53;;
55216;SDS011;41086;46.736;15.666;2023-01-04T15:27:37;5.30;;;3.45;;
55216;SDS011;41086;46.736;15.666;2023-01-04T15:30:08;8.63;;;4.00;;
55216;SDS011;41086;46.736;15.666;2023-01-04T15:32:39;7.63;;;3.88;;
55216;SDS011;41086;46.736;15.666;2023-01-04T15:35:07;6.85;;;4.40;;
55216;SDS011;41086;46.736;15.666;2023-01-04T15:37:35;7.50;;;4.68;;
55216;SDS011;41086;46.736;15.666;2023-01-04T15:40:02;6.72;;;4.47;;
55216;SDS011;41086;46.736;15.666;2023-01-04T15:42:29;6.53;;;4.55;;
55216;SDS011;41086;46.736;15.666;2023-01-04T15:45:15;88.85;;;53.60;;
55216;SDS011;41086;46.736;15.666;2023-01-04T15:50:08;7.50;;;5.10;;
55216;SDS011;41086;46.736;15.666;2023-01-04T15:52:35;12.60;;;7.43;;
55216;SDS011;41086;46.736;15.666;2023-01-04T15:55:02;10.43;;;6.03;;
55216;SDS011;41086;46.736;15.666;2023-01-04T15:57:29;8.40;;;5.88;;
55216;SDS011;41086;46.736;15.666;2023-01-04T15:59:56;13.00;;;7.47;;
55216;SDS011;41086;46.736;15.666;2023-01-04T16:02:23;15.40;;;9.65;;
55216;SDS011;41086;46.736;15.666;2023-01-04T16:07:16;9.70;;;6.03;;
55216;SDS011;41086;46.736;15.666;2023-01-04T16:09:43;11.30;;;6.30;;
55216;SDS011;41086;46.736;15.666;2023-01-04T16:12:10;10.43;;;6.70;;
55216;SDS011;41086;46.736;15.666;2023-01-04T16:14:56;13.30;;;8.05;;
55216;SDS011;41086;46.736;15.666;2023-01-04T16:17:22;15.90;;;11.63;;
55216;SDS011;41086;46.736;15.666;2023-01-04T16:19:50;16.25;;;9.23;;
55216;SDS011;41086;46.736;15.666;2023-01-04T16:22:17;14.40;;;8.18;;
55216;SDS011;41086;46.736;15.666;2023-01-04T16:24:44;10.10;;;7.28;;
55216;SDS011;41086;46.736;15.666;2023-01-04T16:27:31;13.32;;;7.82;;
55216;SDS011;41086;46.736;15.666;2023-01-04T16:30:05;11.50;;;7.07;;
55216;SDS011;41086;46.736;15.666;2023-01-04T16:32:39;11.23;;;8.02;;
55216;SDS011;41086;46.736;15.666;2023-01-04T16:35:07;14.25;;;9.05;;
55216;SDS011;41086;46.736;15.666;2023-01-04T16:37:34;14.90;;;8.75;;
55216;SDS011;41086;46.736;15.666;2023-01-04T16:40:01;12.15;;;7.85;;
55216;SDS011;41086;46.736;15.666;2023-01-04T16:42:34;13.02;;;6.80;;
55216;SDS011;41086;46.736;15.666;2023-01-04T16:45:03;7.03;;;4.65;;
55216;SDS011;41086;46.736;15.666;2023-01-04T16:47:37;9.68;;;5.72;;
55216;SDS011;41086;46.736;15.666;2023-01-04T16:50:06;12.40;;;6.35;;
55216;SDS011;41086;46.736;15.666;2023-01-04T16:52:35;13.82;;;8.18;;
55216;SDS011;41086;46.736;15.666;2023-01-04T16:55:02;12.88;;;8.10;;
55216;SDS011;41086;46.736;15.666;2023-01-04T16:57:28;10.30;;;6.65;;
55216;SDS011;41086;46.736;15.666;2023-01-04T16:59:55;7.10;;;4.57;;
55216;SDS011;41086;46.736;15.666;2023-01-04T17:02:22;8.88;;;4.20;;
55216;SDS011;41086;46.736;15.666;2023-01-04T17:07:20;10.07;;;6.38;;
55216;SDS011;41086;46.736;15.666;2023-01-04T17:09:48;14.77;;;8.95;;
55216;SDS011;41086;46.736;15.666;2023-01-04T17:12:15;14.95;;;8.27;;
55216;SDS011;41086;46.736;15.666;2023-01-04T17:15:02;10.07;;;7.22;;
55216;SDS011;41086;46.736;15.666;2023-01-04T17:17:49;14.00;;;7.72;;
55216;SDS011;41086;46.736;15.666;2023-01-04T17:20:16;14.07;;;7.78;;
55216;SDS011;41086;46.736;15.666;2023-01-04T17:22:43;15.93;;;9.30;;
55216;SDS011;41086;46.736;15.666;2023-01-04T17:27:37;18.85;;;10.73;;
55216;SDS011;41086;46.736;15.666;2023-01-04T17:30:03;14.00;;;6.50;;
55216;SDS011;41086;46.736;15.666;2023-01-04T17:32:31;11.15;;;5.38;;
55216;SDS011;41086;46.736;15.666;2023-01-04T17:34:57;11.05;;;5.90;;
55216;SDS011;41086;46.736;15.666;2023-01-04T17:37:25;7.07;;;4.80;;